Terminal Aerodrome Forecast
Issued by NWS Pocatello, ID

Home | Current Version | Previous Version | Text Only | Print | Product List | Glossary On
Versions: 1 2 3 4 5 6 7 8 9 10 11 12 13 14 15
000
FTUS45 KPIH 292338
TAFIDA
TAF
KIDA 292338Z 3000/3024 21014G25KT P6SM VCSH SCT040 BKN080
     FM300200 19012KT P6SM VCSH FEW020 SCT030 BKN080
     FM300600 19014G26KT P6SM -SHRA BKN020 OVC110
     FM300800 20016G26KT 6SM -SHRA BR BKN010 OVC020
     FM302000 21016G26KT P6SM -SHRA BKN010 OVC030=

USA.gov is the U.S. government's official web portal to all federal, state and local government web resources and services.